Time;durP1;ratioP1;P1;durP2;ratioP2;P2;SDS_P1;SDS_P2;PMS_P1;PMS_P2;Temp;Humidity;BMP_temperature;BMP_pressure;BME280_temperature;BME280_humidity;BME280_pressure;Samples;Min_cycle;Max_cycle;Signal;HPM_P1;HPM_P2
2021/03/06 00:00:01;;;;;;;;;;;16.50;61.60;;;;;;5036171;28;19916;-75
2021/03/06 00:02:26;;;;;;;;;;;16.50;61.60;;;;;;5034961;28;19947;-75
2021/03/06 00:04:52;;;;;;;;;;;16.50;61.60;;;;;;5058165;28;20372;-75
2021/03/06 00:07:17;;;;;;;;;;;16.50;61.60;;;;;;5032776;28;19928;-76
2021/03/06 00:09:46;;;;;;;;;;;16.50;61.50;;;;;;5033679;28;19916;-75
2021/03/06 00:12:11;;;;;;;;;;;16.50;61.50;;;;;;5028794;28;20246;-75
2021/03/06 00:14:37;;;;;;;;;;;16.50;61.50;;;;;;5028960;28;19923;-75
2021/03/06 00:17:02;;;;;;;;;;;16.40;61.60;;;;;;5048201;28;19940;-75
2021/03/06 00:19:28;;;;;;;;;;;16.40;61.50;;;;;;5035351;28;20265;-75
2021/03/06 00:21:53;;;;;;;;;;;16.50;61.50;;;;;;5044138;28;19917;-75
2021/03/06 00:24:19;;;;;;;;;;;16.50;61.50;;;;;;5049924;28;20087;-75
2021/03/06 00:26:45;;;;;;;;;;;16.40;61.40;;;;;;5032598;28;19909;-75
2021/03/06 00:29:13;;;;;;;;;;;16.40;61.60;;;;;;5031826;28;20308;-75
2021/03/06 00:31:39;;;;;;;;;;;16.40;61.50;;;;;;5048762;28;19912;-75
2021/03/06 00:34:05;;;;;;;;;;;16.40;61.40;;;;;;5048560;28;20231;-75
2021/03/06 00:36:30;;;;;;;;;;;16.40;61.40;;;;;;5048332;28;19908;-75
2021/03/06 00:38:56;;;;;;;;;;;16.50;61.40;;;;;;5034448;28;19913;-75
2021/03/06 00:41:22;;;;;;;;;;;16.40;61.40;;;;;;5034443;28;19965;-75
2021/03/06 00:43:50;;;;;;;;;;;16.40;61.40;;;;;;5045038;28;19928;-75
2021/03/06 00:46:15;;;;;;;;;;;16.40;61.40;;;;;;5049724;28;19947;-75
2021/03/06 00:48:41;;;;;;;;;;;16.40;61.50;;;;;;5033290;28;19952;-75
2021/03/06 00:51:07;;;;;;;;;;;16.40;61.40;;;;;;5046912;28;19909;-75
2021/03/06 00:53:36;;;;;;;;;;;16.40;61.30;;;;;;5050232;28;20388;-75
2021/03/06 00:56:01;;;;;;;;;;;16.40;61.30;;;;;;5026947;28;19916;-75
2021/03/06 00:58:27;;;;;;;;;;;16.40;61.30;;;;;;5036087;28;19915;-75
2021/03/06 01:00:53;;;;;;;;;;;16.40;61.30;;;;;;5043809;28;19927;-75
2021/03/06 01:03:18;;;;;;;;;;;16.40;61.30;;;;;;5032348;28;19908;-75
2021/03/06 01:05:44;;;;;;;;;;;16.40;61.30;;;;;;5056142;28;20360;-75
2021/03/06 01:08:09;;;;;;;;;;;16.40;61.30;;;;;;5037936;28;19908;-75
2021/03/06 01:10:40;;;;;;;;;;;16.40;61.30;;;;;;5031680;28;19920;-75
2021/03/06 01:13:09;;;;;;;;;;;16.40;61.30;;;;;;5028665;28;19912;-75
2021/03/06 01:15:35;;;;;;;;;;;16.40;61.30;;;;;;5030111;28;19916;-75
2021/03/06 01:18:02;;;;;;;;;;;16.40;61.30;;;;;;5032969;28;20368;-75
2021/03/06 01:20:28;;;;;;;;;;;16.40;61.30;;;;;;5031715;28;19917;-76
2021/03/06 01:22:53;;;;;;;;;;;16.40;61.20;;;;;;5033904;28;19924;-76
2021/03/06 01:25:19;;;;;;;;;;;16.40;61.20;;;;;;5050911;28;19916;-75
2021/03/06 01:27:45;;;;;;;;;;;16.40;61.20;;;;;;5047552;28;19923;-75
2021/03/06 01:30:10;;;;;;;;;;;16.40;61.10;;;;;;5031497;28;19935;-75
2021/03/06 01:32:36;;;;;;;;;;;16.40;61.20;;;;;;5044355;28;19925;-75
2021/03/06 01:35:03;;;;;;;;;;;16.40;61.20;;;;;;5047573;28;19924;-75
2021/03/06 01:37:29;;;;;;;;;;;16.40;61.20;;;;;;5026635;28;19964;-75
2021/03/06 01:39:54;;;;;;;;;;;16.40;61.20;;;;;;5049424;28;20002;-75
2021/03/06 01:42:21;;;;;;;;;;;16.30;61.20;;;;;;5049175;28;20307;-75
2021/03/06 01:44:46;;;;;;;;;;;16.40;61.10;;;;;;5030302;28;19913;-75
2021/03/06 01:47:12;;;;;;;;;;;16.40;61.10;;;;;;5048246;28;19909;-75
2021/03/06 01:49:38;;;;;;;;;;;16.40;61.00;;;;;;5032602;28;20366;-75
2021/03/06 01:52:04;;;;;;;;;;;16.40;61.20;;;;;;5029317;28;20342;-75
2021/03/06 01:54:29;;;;;;;;;;;16.40;61.10;;;;;;5032971;28;19924;-75
2021/03/06 01:56:55;;;;;;;;;;;16.30;61.10;;;;;;5048751;28;19905;-75
2021/03/06 01:59:21;;;;;;;;;;;16.30;61.10;;;;;;5029794;28;20000;-75
2021/03/06 02:01:46;;;;;;;;;;;16.40;61.00;;;;;;5050017;28;19915;-75
2021/03/06 02:04:12;;;;;;;;;;;16.30;61.10;;;;;;5030831;28;19913;-75
2021/03/06 02:06:38;;;;;;;;;;;16.40;61.10;;;;;;5047078;28;19916;-75
2021/03/06 02:09:04;;;;;;;;;;;16.30;61.10;;;;;;5049684;28;19913;-75
2021/03/06 02:11:38;;;;;;;;;;;16.30;61.10;;;;;;5031754;28;19916;-75
2021/03/06 02:14:18;;;;;;;;;;;16.30;61.00;;;;;;5027815;28;19923;-75
2021/03/06 02:16:48;;;;;;;;;;;16.30;60.90;;;;;;5029614;28;20007;-75
2021/03/06 02:19:17;;;;;;;;;;;16.30;61.00;;;;;;5050500;28;19912;-75
2021/03/06 02:21:55;;;;;;;;;;;16.30;60.90;;;;;;5047673;28;20247;-76
2021/03/06 02:24:36;;;;;;;;;;;16.40;60.90;;;;;;5034987;28;20266;-76
2021/03/06 02:27:21;;;;;;;;;;;16.30;60.90;;;;;;5029419;28;19916;-75
2021/03/06 02:29:54;;;;;;;;;;;16.30;60.90;;;;;;5017590;28;20288;-75
2021/03/06 02:32:19;;;;;;;;;;;16.30;60.80;;;;;;5031078;28;19928;-76
2021/03/06 02:34:50;;;;;;;;;;;16.30;60.90;;;;;;5035189;28;19936;-75
2021/03/06 02:37:17;;;;;;;;;;;16.30;60.90;;;;;;5032393;28;19975;-75
2021/03/06 02:39:44;;;;;;;;;;;16.30;60.80;;;;;;5052294;28;19908;-75
2021/03/06 02:42:12;;;;;;;;;;;16.30;60.90;;;;;;5049426;28;19912;-75
2021/03/06 02:44:38;;;;;;;;;;;16.30;60.80;;;;;;5029894;28;19909;-75
2021/03/06 02:47:04;;;;;;;;;;;16.30;61.00;;;;;;5030067;28;19909;-79
2021/03/06 02:49:30;;;;;;;;;;;16.30;61.10;;;;;;5033014;28;20012;-74
2021/03/06 02:51:55;;;;;;;;;;;16.30;61.10;;;;;;5025094;28;20023;-75
2021/03/06 02:54:21;;;;;;;;;;;16.30;61.20;;;;;;5031768;28;19909;-74
2021/03/06 02:56:47;;;;;;;;;;;16.30;61.20;;;;;;5043623;28;19908;-75
2021/03/06 02:59:31;;;;;;;;;;;16.30;61.10;;;;;;5046469;28;19908;-75
2021/03/06 03:01:56;;;;;;;;;;;16.30;61.20;;;;;;5036140;28;19913;-75
2021/03/06 03:04:44;;;;;;;;;;;16.30;61.20;;;;;;5033988;28;20372;-75
2021/03/06 03:07:13;;;;;;;;;;;16.30;61.10;;;;;;5049679;28;20264;-75
2021/03/06 03:09:42;;;;;;;;;;;16.30;61.10;;;;;;5050384;28;19963;-75
2021/03/06 03:12:11;;;;;;;;;;;16.30;61.00;;;;;;5032016;28;20261;-75
2021/03/06 03:14:44;;;;;;;;;;;16.30;61.00;;;;;;5034407;28;19923;-74
2021/03/06 03:17:32;;;;;;;;;;;16.30;61.00;;;;;;5037148;28;19916;-75
2021/03/06 03:20:16;;;;;;;;;;;16.30;61.00;;;;;;5057231;28;19948;-75
2021/03/06 03:22:44;;;;;;;;;;;16.30;61.00;;;;;;5051080;28;19909;-75
2021/03/06 03:25:10;;;;;;;;;;;16.30;61.00;;;;;;5046703;28;20448;-74
2021/03/06 03:27:37;;;;;;;;;;;16.30;61.00;;;;;;5034465;28;19921;-75
2021/03/06 03:30:06;;;;;;;;;;;16.30;60.90;;;;;;5048955;28;19909;-74
2021/03/06 03:32:33;;;;;;;;;;;16.30;61.00;;;;;;5035124;28;19909;-75
2021/03/06 03:34:59;;;;;;;;;;;16.30;61.00;;;;;;5035616;28;19952;-75
2021/03/06 03:37:29;;;;;;;;;;;16.30;61.00;;;;;;5051705;28;19983;-75
2021/03/06 03:39:55;;;;;;;;;;;16.30;61.00;;;;;;5039766;28;19909;-75
2021/03/06 03:42:21;;;;;;;;;;;16.30;60.90;;;;;;5035644;28;20266;-75
2021/03/06 03:44:47;;;;;;;;;;;16.30;61.00;;;;;;5047484;28;19919;-75
2021/03/06 03:47:13;;;;;;;;;;;16.30;60.90;;;;;;5045732;28;19996;-74
2021/03/06 03:49:38;;;;;;;;;;;16.30;60.90;;;;;;5051601;28;19909;-75
2021/03/06 03:52:04;;;;;;;;;;;16.30;61.00;;;;;;5035798;28;19909;-75
2021/03/06 03:54:32;;;;;;;;;;;16.30;60.90;;;;;;5047988;28;19915;-75
2021/03/06 03:56:58;;;;;;;;;;;16.30;60.90;;;;;;5048469;28;20298;-75
2021/03/06 03:59:23;;;;;;;;;;;16.30;60.90;;;;;;5030917;28;19955;-75
2021/03/06 04:01:49;;;;;;;;;;;16.20;60.90;;;;;;5031684;28;19920;-75
2021/03/06 04:04:45;;;;;;;;;;;16.30;60.90;;;;;;5055104;28;19915;-74
2021/03/06 04:07:11;;;;;;;;;;;16.20;60.80;;;;;;5044065;28;19915;-75
2021/03/06 04:09:49;;;;;;;;;;;16.20;60.90;;;;;;5034347;28;19912;-75
2021/03/06 04:12:18;;;;;;;;;;;16.20;60.90;;;;;;5034322;28;19962;-75
2021/03/06 04:14:44;;;;;;;;;;;16.20;60.90;;;;;;5024596;28;19929;-75
2021/03/06 04:17:11;;;;;;;;;;;16.20;60.90;;;;;;5032345;28;19908;-75
2021/03/06 04:19:36;;;;;;;;;;;16.20;60.80;;;;;;5050496;28;19913;-75
2021/03/06 04:22:07;;;;;;;;;;;16.20;60.80;;;;;;5035278;28;19967;-75
2021/03/06 04:24:32;;;;;;;;;;;16.20;60.80;;;;;;5034189;28;19917;-75
2021/03/06 04:26:58;;;;;;;;;;;16.20;60.80;;;;;;5029731;28;20292;-75
2021/03/06 04:29:24;;;;;;;;;;;16.20;60.80;;;;;;5049895;28;19917;-76
2021/03/06 04:31:49;;;;;;;;;;;16.20;60.80;;;;;;5029360;28;19999;-75
2021/03/06 04:34:15;;;;;;;;;;;16.20;60.70;;;;;;5054921;28;19908;-75
2021/03/06 04:36:41;;;;;;;;;;;16.20;60.70;;;;;;5032048;28;19913;-75
2021/03/06 04:39:06;;;;;;;;;;;16.20;60.80;;;;;;5053978;28;19943;-75
2021/03/06 04:41:32;;;;;;;;;;;16.20;60.80;;;;;;5043562;28;19913;-76
2021/03/06 04:43:58;;;;;;;;;;;16.20;60.80;;;;;;5029495;28;19925;-75
2021/03/06 04:46:24;;;;;;;;;;;16.20;60.70;;;;;;5047719;28;19915;-75
2021/03/06 04:48:53;;;;;;;;;;;16.20;60.80;;;;;;5036712;28;19931;-75
2021/03/06 04:51:19;;;;;;;;;;;16.20;60.80;;;;;;5034283;28;19909;-75
2021/03/06 04:53:44;;;;;;;;;;;16.20;60.70;;;;;;5054451;28;19924;-75
2021/03/06 04:56:10;;;;;;;;;;;16.20;60.70;;;;;;5049717;28;20277;-75
2021/03/06 04:58:35;;;;;;;;;;;16.20;60.80;;;;;;5030274;28;19917;-75
2021/03/06 05:01:01;;;;;;;;;;;16.20;60.70;;;;;;5030501;28;19916;-75
2021/03/06 05:03:26;;;;;;;;;;;16.10;60.70;;;;;;5035900;28;20385;-75
2021/03/06 05:05:52;;;;;;;;;;;16.20;60.70;;;;;;5031675;28;19909;-75
2021/03/06 05:08:17;;;;;;;;;;;16.20;60.70;;;;;;5047349;28;20350;-75
2021/03/06 05:10:43;;;;;;;;;;;16.20;60.70;;;;;;5032703;28;19988;-74
2021/03/06 05:13:08;;;;;;;;;;;16.20;60.80;;;;;;5032791;28;19917;-75
2021/03/06 05:15:34;;;;;;;;;;;16.20;60.60;;;;;;5031903;28;19924;-75
2021/03/06 05:17:59;;;;;;;;;;;16.10;60.70;;;;;;5032373;28;20353;-75
2021/03/06 05:20:25;;;;;;;;;;;16.20;60.70;;;;;;5050492;28;19962;-75
2021/03/06 05:22:51;;;;;;;;;;;16.10;60.80;;;;;;5031980;28;19913;-75
2021/03/06 05:25:16;;;;;;;;;;;16.10;60.70;;;;;;5043669;28;19923;-75
2021/03/06 05:27:42;;;;;;;;;;;16.10;60.70;;;;;;5042208;28;20004;-75
2021/03/06 05:30:08;;;;;;;;;;;16.10;60.70;;;;;;5043637;28;19909;-75
2021/03/06 05:32:38;;;;;;;;;;;16.10;60.60;;;;;;5047553;28;19947;-75
2021/03/06 05:35:09;;;;;;;;;;;16.10;60.60;;;;;;5050754;28;19963;-75
2021/03/06 05:37:34;;;;;;;;;;;16.10;60.70;;;;;;5048033;28;19921;-75
2021/03/06 05:40:00;;;;;;;;;;;16.20;60.70;;;;;;5030423;28;19909;-76
2021/03/06 05:42:27;;;;;;;;;;;16.10;60.80;;;;;;5033214;28;19908;-75
2021/03/06 05:44:53;;;;;;;;;;;16.10;60.80;;;;;;5044378;28;19909;-75
2021/03/06 05:47:18;;;;;;;;;;;16.10;60.90;;;;;;5045368;28;20449;-76
2021/03/06 05:49:45;;;;;;;;;;;16.10;60.90;;;;;;5048405;28;19963;-76
2021/03/06 05:52:16;;;;;;;;;;;16.10;61.00;;;;;;5044451;28;19956;-76
2021/03/06 05:54:46;;;;;;;;;;;16.10;61.00;;;;;;5051994;28;19931;-76
2021/03/06 05:57:12;;;;;;;;;;;16.10;61.10;;;;;;5042666;28;19912;-76
2021/03/06 05:59:37;;;;;;;;;;;16.10;61.10;;;;;;5034578;28;20053;-76
2021/03/06 06:02:03;;;;;;;;;;;16.10;61.00;;;;;;5031887;28;20384;-76
2021/03/06 06:04:30;;;;;;;;;;;16.10;61.10;;;;;;5046508;28;21147;-76
2021/03/06 06:06:57;;;;;;;;;;;16.10;61.10;;;;;;5033749;28;19973;-76
2021/03/06 06:09:23;;;;;;;;;;;16.10;61.10;;;;;;5015191;28;20351;-76
2021/03/06 06:11:48;;;;;;;;;;;16.10;61.10;;;;;;5031053;28;19924;-76
2021/03/06 06:14:14;;;;;;;;;;;16.10;61.00;;;;;;5031534;28;20364;-76
2021/03/06 06:16:39;;;;;;;;;;;16.10;61.00;;;;;;5047842;28;20590;-76
2021/03/06 06:19:05;;;;;;;;;;;16.10;61.00;;;;;;5034136;28;19909;-76
2021/03/06 06:21:40;;;;;;;;;;;16.10;61.00;;;;;;5032687;28;19909;-76
2021/03/06 06:24:09;;;;;;;;;;;16.20;61.00;;;;;;5032335;28;19958;-76
2021/03/06 06:26:36;;;;;;;;;;;16.10;60.90;;;;;;5035537;28;20364;-76
2021/03/06 06:29:05;;;;;;;;;;;16.10;61.00;;;;;;5030605;28;19996;-77
2021/03/06 06:31:30;;;;;;;;;;;16.10;60.90;;;;;;5031194;28;19977;-77
2021/03/06 06:33:58;;;;;;;;;;;16.10;60.90;;;;;;5045850;28;20362;-76
2021/03/06 06:36:35;;;;;;;;;;;16.10;61.00;;;;;;5049755;28;19924;-76
2021/03/06 06:39:02;;;;;;;;;;;16.10;60.90;;;;;;5030491;28;19925;-76
2021/03/06 06:41:46;;;;;;;;;;;16.10;60.90;;;;;;5028591;28;19913;-76
2021/03/06 06:44:12;;;;;;;;;;;16.10;60.90;;;;;;5053028;28;19916;-76
2021/03/06 06:46:37;;;;;;;;;;;16.20;60.90;;;;;;5035069;28;19909;-76
2021/03/06 06:49:03;;;;;;;;;;;16.10;60.80;;;;;;5040104;28;19908;-77
2021/03/06 06:51:28;;;;;;;;;;;16.20;60.90;;;;;;5035469;28;20239;-76
2021/03/06 06:54:10;;;;;;;;;;;16.20;60.80;;;;;;5033680;28;19909;-76
2021/03/06 06:56:35;;;;;;;;;;;16.10;60.80;;;;;;5045725;28;19916;-76
2021/03/06 06:59:05;;;;;;;;;;;16.20;60.80;;;;;;5029918;28;19915;-76
2021/03/06 07:01:34;;;;;;;;;;;16.20;60.80;;;;;;5054180;28;19921;-76
2021/03/06 07:04:00;;;;;;;;;;;16.10;60.80;;;;;;5051709;28;19955;-76
2021/03/06 07:06:25;;;;;;;;;;;16.10;60.80;;;;;;5035454;28;19940;-76
2021/03/06 07:09:11;;;;;;;;;;;16.20;60.80;;;;;;5049087;28;19936;-76
2021/03/06 07:11:37;;;;;;;;;;;16.20;60.70;;;;;;5033315;28;19913;-76
2021/03/06 07:14:03;;;;;;;;;;;16.10;60.70;;;;;;5036270;28;20004;-76
2021/03/06 07:16:56;;;;;;;;;;;16.10;60.70;;;;;;5028979;28;19917;-76
2021/03/06 07:19:22;;;;;;;;;;;16.10;60.70;;;;;;5043002;28;19923;-76
2021/03/06 07:21:51;;;;;;;;;;;16.10;60.60;;;;;;5051435;28;19909;-76
2021/03/06 07:24:17;;;;;;;;;;;16.20;60.70;;;;;;5028836;28;19920;-76
2021/03/06 07:26:42;;;;;;;;;;;16.10;60.60;;;;;;5046264;28;19957;-76
2021/03/06 07:29:13;;;;;;;;;;;16.20;60.60;;;;;;5033689;28;20388;-76
2021/03/06 07:31:39;;;;;;;;;;;16.10;60.50;;;;;;5046171;28;19908;-76
2021/03/06 07:34:11;;;;;;;;;;;16.10;60.50;;;;;;5030249;28;19913;-76
2021/03/06 07:36:42;;;;;;;;;;;16.20;60.50;;;;;;5052266;28;19924;-76
2021/03/06 07:39:14;;;;;;;;;;;16.20;60.50;;;;;;5036871;28;19909;-76
2021/03/06 07:41:42;;;;;;;;;;;16.20;60.40;;;;;;5033860;28;19921;-76
2021/03/06 07:44:13;;;;;;;;;;;16.20;60.40;;;;;;5037033;28;20047;-76
2021/03/06 07:46:39;;;;;;;;;;;16.20;60.40;;;;;;5035266;28;19909;-76
2021/03/06 07:49:10;;;;;;;;;;;16.20;60.40;;;;;;5032902;28;19909;-77
2021/03/06 07:51:38;;;;;;;;;;;16.20;60.40;;;;;;5050235;28;19916;-76
2021/03/06 07:54:04;;;;;;;;;;;16.20;60.30;;;;;;5033390;28;20382;-77
2021/03/06 07:56:30;;;;;;;;;;;16.20;60.30;;;;;;5035746;28;19917;-76
2021/03/06 07:58:58;;;;;;;;;;;16.20;60.30;;;;;;5037409;28;19912;-76
2021/03/06 08:01:29;;;;;;;;;;;16.20;60.20;;;;;;5043133;28;20302;-76
2021/03/06 08:04:07;;;;;;;;;;;16.20;60.10;;;;;;5048419;28;20365;-76
2021/03/06 08:06:33;;;;;;;;;;;16.20;60.10;;;;;;5052971;28;19909;-77
2021/03/06 08:09:03;;;;;;;;;;;16.20;60.10;;;;;;5030858;28;19909;-76
2021/03/06 08:11:34;;;;;;;;;;;16.20;60.00;;;;;;5031970;28;19913;-76
2021/03/06 08:14:02;;;;;;;;;;;16.20;60.00;;;;;;5052982;28;19913;-76
2021/03/06 08:16:27;;;;;;;;;;;16.20;59.90;;;;;;5048064;28;20615;-76
2021/03/06 08:18:57;;;;;;;;;;;16.20;59.90;;;;;;5034754;28;19999;-76
2021/03/06 08:21:30;;;;;;;;;;;16.20;59.90;;;;;;5030928;28;20306;-77
2021/03/06 08:24:21;;;;;;;;;;;16.20;59.90;;;;;;5053477;28;19908;-76
2021/03/06 08:27:02;;;;;;;;;;;16.20;59.80;;;;;;5047019;28;19912;-76
2021/03/06 08:29:27;;;;;;;;;;;16.20;59.80;;;;;;5046951;28;19929;-76
2021/03/06 08:32:02;;;;;;;;;;;16.30;59.70;;;;;;5029496;28;19915;-77
2021/03/06 08:34:29;;;;;;;;;;;16.20;59.70;;;;;;5022054;28;19928;-76
2021/03/06 08:37:16;;;;;;;;;;;16.30;59.70;;;;;;5042480;28;20419;-76
2021/03/06 08:39:48;;;;;;;;;;;16.20;59.70;;;;;;5047377;28;22536;-77
2021/03/06 08:42:15;;;;;;;;;;;16.30;59.70;;;;;;5023783;28;19971;-76
2021/03/06 08:44:45;;;;;;;;;;;16.20;59.70;;;;;;5048207;28;19992;-76
2021/03/06 08:47:11;;;;;;;;;;;16.30;59.80;;;;;;5041933;28;19915;-76
2021/03/06 08:49:36;;;;;;;;;;;16.30;59.80;;;;;;5041898;28;19991;-76
2021/03/06 08:52:07;;;;;;;;;;;16.30;59.90;;;;;;5034069;28;20340;-76
2021/03/06 08:54:37;;;;;;;;;;;16.30;60.00;;;;;;5049309;28;19925;-76
2021/03/06 08:57:02;;;;;;;;;;;16.30;60.20;;;;;;5048024;28;19912;-77
2021/03/06 08:59:38;;;;;;;;;;;16.30;60.30;;;;;;5030305;28;19915;-76
2021/03/06 09:02:42;;;;;;;;;;;16.30;60.50;;;;;;5045717;28;20357;-77
2021/03/06 09:05:15;;;;;;;;;;;16.30;60.60;;;;;;5016233;28;20360;-77
2021/03/06 09:07:42;;;;;;;;;;;16.30;60.70;;;;;;5027533;28;19917;-77
2021/03/06 09:10:14;;;;;;;;;;;16.30;60.70;;;;;;5035015;28;19909;-77
2021/03/06 09:12:40;;;;;;;;;;;16.30;60.70;;;;;;5043007;28;19909;-77
2021/03/06 09:15:07;;;;;;;;;;;16.30;60.80;;;;;;5049438;28;19912;-77
2021/03/06 09:17:32;;;;;;;;;;;16.30;60.80;;;;;;5028294;28;19924;-78
2021/03/06 09:20:05;;;;;;;;;;;16.30;60.90;;;;;;5038835;28;20000;-77
2021/03/06 09:22:41;;;;;;;;;;;16.40;60.90;;;;;;5027760;28;19908;-77
2021/03/06 09:25:06;;;;;;;;;;;16.30;60.90;;;;;;5048405;28;20000;-77
2021/03/06 09:27:41;;;;;;;;;;;16.40;61.00;;;;;;5032311;28;20306;-77
2021/03/06 09:30:18;;;;;;;;;;;16.40;61.00;;;;;;5043882;28;19988;-77
2021/03/06 09:32:44;;;;;;;;;;;16.40;60.90;;;;;;5049839;28;19913;-77
2021/03/06 09:35:11;;;;;;;;;;;16.40;60.90;;;;;;5029382;28;20394;-77
2021/03/06 09:37:37;;;;;;;;;;;16.40;60.90;;;;;;5022880;28;19925;-77
2021/03/06 09:40:14;;;;;;;;;;;16.40;60.80;;;;;;5039779;28;20229;-77
2021/03/06 09:42:41;;;;;;;;;;;16.40;60.90;;;;;;5034106;28;19909;-76
2021/03/06 09:45:07;;;;;;;;;;;16.40;60.90;;;;;;5051830;28;19917;-77
2021/03/06 09:47:37;;;;;;;;;;;16.50;60.90;;;;;;5031651;28;19916;-78
2021/03/06 09:50:06;;;;;;;;;;;16.40;60.90;;;;;;5022552;28;19913;-77
2021/03/06 09:52:33;;;;;;;;;;;16.50;60.90;;;;;;5026645;28;19915;-77
2021/03/06 09:54:58;;;;;;;;;;;16.40;60.90;;;;;;5040009;28;19913;-77
2021/03/06 09:57:24;;;;;;;;;;;16.50;60.80;;;;;;5039047;28;19928;-77
2021/03/06 09:59:50;;;;;;;;;;;16.50;60.90;;;;;;5047576;28;19909;-77
2021/03/06 10:02:20;;;;;;;;;;;16.50;61.00;;;;;;5031482;28;19913;-77
2021/03/06 10:04:46;;;;;;;;;;;16.50;61.30;;;;;;5032640;28;19924;-79
2021/03/06 10:07:12;;;;;;;;;;;16.50;61.40;;;;;;5033318;28;20043;-79
2021/03/06 10:09:38;;;;;;;;;;;16.60;61.40;;;;;;5051460;28;19909;-79
2021/03/06 10:12:07;;;;;;;;;;;16.60;61.40;;;;;;5047057;28;19967;-79
2021/03/06 10:14:33;;;;;;;;;;;16.60;61.40;;;;;;5047459;28;19912;-79
2021/03/06 10:17:05;;;;;;;;;;;16.60;61.30;;;;;;5046808;28;19919;-79
2021/03/06 10:19:44;;;;;;;;;;;16.60;61.30;;;;;;5055704;28;19988;-82
2021/03/06 10:22:11;;;;;;;;;;;16.60;61.30;;;;;;5035022;28;20000;-79
2021/03/06 10:24:58;;;;;;;;;;;16.60;61.30;;;;;;5056697;28;20352;-79
2021/03/06 10:27:34;;;;;;;;;;;16.60;61.40;;;;;;5031549;28;19908;-80
2021/03/06 10:30:35;;;;;;;;;;;16.60;61.40;;;;;;5049744;28;20281;-79
2021/03/06 10:33:05;;;;;;;;;;;16.70;61.40;;;;;;4935504;29;19958;-78
2021/03/06 10:35:51;;;;;;;;;;;16.70;61.50;;;;;;5000341;28;19916;-79
2021/03/06 10:38:27;;;;;;;;;;;16.70;61.50;;;;;;5014028;28;19913;-79
2021/03/06 10:40:54;;;;;;;;;;;16.70;61.50;;;;;;5023161;28;19921;-80
2021/03/06 10:43:25;;;;;;;;;;;16.70;61.50;;;;;;5040223;28;19916;-80
2021/03/06 10:45:51;;;;;;;;;;;16.70;61.50;;;;;;5039483;28;20382;-79
2021/03/06 10:48:37;;;;;;;;;;;16.70;61.60;;;;;;5021539;28;19919;-79
2021/03/06 10:51:03;;;;;;;;;;;16.70;61.70;;;;;;4998325;28;19909;-79
2021/03/06 10:53:28;;;;;;;;;;;16.70;61.70;;;;;;5032214;28;19909;-79
2021/03/06 10:55:54;;;;;;;;;;;16.70;61.80;;;;;;5027420;28;20270;-79
2021/03/06 10:58:21;;;;;;;;;;;16.80;61.80;;;;;;5039709;28;20012;-79
2021/03/06 11:00:47;;;;;;;;;;;16.80;61.90;;;;;;5041489;28;19956;-79
2021/03/06 11:03:18;;;;;;;;;;;16.80;62.00;;;;;;5016887;28;19952;-79
2021/03/06 11:05:44;;;;;;;;;;;16.80;62.00;;;;;;5033357;28;19909;-80
2021/03/06 11:08:11;;;;;;;;;;;16.80;61.90;;;;;;5032072;28;19955;-79
2021/03/06 11:10:41;;;;;;;;;;;16.80;61.90;;;;;;5020060;28;20326;-80
2021/03/06 11:13:07;;;;;;;;;;;16.80;61.90;;;;;;5041741;28;19920;-76
2021/03/06 11:15:33;;;;;;;;;;;16.80;62.00;;;;;;5017349;28;19913;-76
2021/03/06 11:18:00;;;;;;;;;;;16.80;62.10;;;;;;5015230;28;19921;-76
2021/03/06 11:20:30;;;;;;;;;;;16.80;62.00;;;;;;5013804;28;20416;-77
2021/03/06 11:22:59;;;;;;;;;;;16.80;62.00;;;;;;5008445;28;20198;-77
2021/03/06 11:25:25;;;;;;;;;;;16.80;62.00;;;;;;5019143;28;20355;-77
2021/03/06 11:27:53;;;;;;;;;;;16.80;62.00;;;;;;5024247;28;21072;-76
2021/03/06 11:30:20;;;;;;;;;;;16.80;62.00;;;;;;5033824;28;19916;-76
2021/03/06 11:32:46;;;;;;;;;;;16.80;61.90;;;;;;5035210;28;20000;-76
2021/03/06 11:35:12;;;;;;;;;;;16.80;61.90;;;;;;5031071;28;19988;-78
2021/03/06 11:37:38;;;;;;;;;;;16.80;61.90;;;;;;5036103;28;20416;-76
2021/03/06 11:40:04;;;;;;;;;;;16.80;61.90;;;;;;5054124;28;19913;-76
2021/03/06 11:42:29;;;;;;;;;;;16.80;61.90;;;;;;5035505;28;19915;-76
2021/03/06 11:44:55;;;;;;;;;;;16.80;61.90;;;;;;5033391;28;19912;-76
2021/03/06 11:47:21;;;;;;;;;;;16.80;61.80;;;;;;5030209;28;19921;-75
2021/03/06 11:49:46;;;;;;;;;;;16.80;61.80;;;;;;5029484;28;19913;-76
2021/03/06 11:52:15;;;;;;;;;;;16.80;61.80;;;;;;5028797;28;19913;-78
2021/03/06 11:54:40;;;;;;;;;;;16.80;61.80;;;;;;5034052;28;20346;-77
2021/03/06 11:57:06;;;;;;;;;;;16.80;61.80;;;;;;5053356;28;19912;-76
2021/03/06 11:59:32;;;;;;;;;;;16.80;61.80;;;;;;5036879;28;19909;-76
2021/03/06 12:01:57;;;;;;;;;;;16.80;61.80;;;;;;5047824;28;19924;-77
2021/03/06 12:04:23;;;;;;;;;;;16.80;61.70;;;;;;5029280;28;19913;-76
2021/03/06 12:06:48;;;;;;;;;;;16.80;61.80;;;;;;5031911;28;20004;-77
2021/03/06 12:09:14;;;;;;;;;;;16.80;61.70;;;;;;5034673;28;19915;-77
2021/03/06 12:11:42;;;;;;;;;;;16.80;61.80;;;;;;5034575;28;19909;-77
2021/03/06 12:14:14;;;;;;;;;;;16.80;61.80;;;;;;5030753;28;19929;-76
2021/03/06 12:16:39;;;;;;;;;;;16.80;61.80;;;;;;5028913;28;19916;-77
2021/03/06 12:19:05;;;;;;;;;;;16.80;61.70;;;;;;5044974;28;19913;-77
2021/03/06 12:21:35;;;;;;;;;;;16.80;61.80;;;;;;5044211;28;19935;-77
2021/03/06 12:24:06;;;;;;;;;;;16.80;61.80;;;;;;5051015;28;19909;-77
2021/03/06 12:26:31;;;;;;;;;;;16.80;61.80;;;;;;5034336;28;19915;-77
2021/03/06 12:28:57;;;;;;;;;;;16.80;61.80;;;;;;5048220;28;19921;-76
2021/03/06 12:31:22;;;;;;;;;;;16.80;61.70;;;;;;5052254;28;19908;-76
2021/03/06 12:33:48;;;;;;;;;;;16.90;61.70;;;;;;5023764;28;20366;-77
2021/03/06 12:36:15;;;;;;;;;;;16.80;61.70;;;;;;5045224;28;19913;-77
2021/03/06 12:38:43;;;;;;;;;;;16.80;61.70;;;;;;5030737;28;19960;-77
2021/03/06 12:41:08;;;;;;;;;;;16.80;61.70;;;;;;5035920;28;19915;-76
2021/03/06 12:43:34;;;;;;;;;;;16.90;61.60;;;;;;5033787;28;19909;-77
2021/03/06 12:45:59;;;;;;;;;;;16.80;61.60;;;;;;5047555;28;19908;-76
2021/03/06 12:48:28;;;;;;;;;;;16.80;61.60;;;;;;5026368;28;19913;-76
2021/03/06 12:50:53;;;;;;;;;;;16.80;61.60;;;;;;5025423;28;19908;-77
2021/03/06 12:53:19;;;;;;;;;;;16.80;61.60;;;;;;5027011;28;19920;-76
2021/03/06 12:55:45;;;;;;;;;;;16.80;61.60;;;;;;5049133;28;19916;-75
2021/03/06 12:58:10;;;;;;;;;;;16.80;61.60;;;;;;5031186;28;19912;-75
2021/03/06 13:00:36;;;;;;;;;;;16.80;61.60;;;;;;5033698;28;20004;-74
2021/03/06 13:03:02;;;;;;;;;;;16.90;61.50;;;;;;5032635;28;21390;-74
2021/03/06 13:05:28;;;;;;;;;;;16.80;61.50;;;;;;5028023;28;20016;-76
2021/03/06 13:07:53;;;;;;;;;;;16.90;61.50;;;;;;5051852;28;19987;-74
2021/03/06 13:10:19;;;;;;;;;;;16.90;61.40;;;;;;5049696;28;19908;-74
2021/03/06 13:12:45;;;;;;;;;;;16.80;61.40;;;;;;5031792;28;20402;-74
2021/03/06 13:15:11;;;;;;;;;;;16.90;61.30;;;;;;5036155;28;20023;-74
2021/03/06 13:17:36;;;;;;;;;;;16.90;61.30;;;;;;5044561;28;19948;-74
2021/03/06 13:20:03;;;;;;;;;;;16.90;61.30;;;;;;5026537;28;19921;-75
2021/03/06 13:22:29;;;;;;;;;;;16.90;61.30;;;;;;5043908;28;20429;-75
2021/03/06 13:24:54;;;;;;;;;;;16.90;61.30;;;;;;5032937;28;19908;-75
2021/03/06 13:27:20;;;;;;;;;;;16.90;61.40;;;;;;5049552;28;20341;-75
2021/03/06 13:29:45;;;;;;;;;;;16.90;61.30;;;;;;5048999;28;19917;-76
2021/03/06 13:32:11;;;;;;;;;;;16.90;61.30;;;;;;5052419;28;20253;-75
2021/03/06 13:34:36;;;;;;;;;;;16.90;61.30;;;;;;5029059;28;20006;-75
2021/03/06 13:37:02;;;;;;;;;;;16.90;61.20;;;;;;5044742;28;20083;-75
2021/03/06 13:39:27;;;;;;;;;;;16.90;61.20;;;;;;5029403;28;20364;-75
2021/03/06 13:41:53;;;;;;;;;;;16.90;61.10;;;;;;5044890;28;19918;-75
2021/03/06 13:44:24;;;;;;;;;;;16.90;61.10;;;;;;5049250;28;19908;-75
2021/03/06 13:46:50;;;;;;;;;;;16.90;61.00;;;;;;5048185;28;19995;-75
2021/03/06 13:49:20;;;;;;;;;;;16.90;61.00;;;;;;5032758;28;20000;-75
2021/03/06 13:51:46;;;;;;;;;;;16.90;60.90;;;;;;5031893;28;19971;-75
2021/03/06 13:54:11;;;;;;;;;;;16.90;60.80;;;;;;5032752;28;20427;-75
2021/03/06 13:56:37;;;;;;;;;;;16.90;60.80;;;;;;5031455;28;20257;-75
2021/03/06 13:59:07;;;;;;;;;;;16.90;60.70;;;;;;5048253;28;19913;-75
2021/03/06 14:01:39;;;;;;;;;;;16.90;60.60;;;;;;5033748;28;20342;-75
2021/03/06 14:04:04;;;;;;;;;;;16.90;60.60;;;;;;5033152;28;19917;-75
2021/03/06 14:06:31;;;;;;;;;;;16.90;60.50;;;;;;5055347;28;20345;-76
2021/03/06 14:08:56;;;;;;;;;;;16.90;60.40;;;;;;5049397;28;19955;-75
2021/03/06 14:11:22;;;;;;;;;;;16.90;60.40;;;;;;5042364;28;19908;-75
2021/03/06 14:13:47;;;;;;;;;;;16.90;60.30;;;;;;5034298;28;19978;-75
2021/03/06 14:16:13;;;;;;;;;;;16.90;60.20;;;;;;5046010;28;19925;-75
2021/03/06 14:18:39;;;;;;;;;;;16.90;60.20;;;;;;5049276;28;19916;-75
2021/03/06 14:21:04;;;;;;;;;;;16.90;60.10;;;;;;5047078;28;19916;-75